sensor_id;sensor_type;location;lat;lon;timestamp;temperature;humidity
22633;DHT22;11483;55.828;37.488;2022-11-20T00:00:28;-1.50;99.90
22633;DHT22;11483;55.828;37.488;2022-11-20T00:02:54;-1.50;99.90
22633;DHT22;11483;55.828;37.488;2022-11-20T00:05:20;-1.50;99.90
22633;DHT22;11483;55.828;37.488;2022-11-20T00:07:46;-1.50;99.90
22633;DHT22;11483;55.828;37.488;2022-11-20T00:10:12;-1.50;99.90
22633;DHT22;11483;55.828;37.488;2022-11-20T00:12:38;-1.50;99.90
22633;DHT22;11483;55.828;37.488;2022-11-20T00:15:04;-1.50;99.90
22633;DHT22;11483;55.828;37.488;2022-11-20T00:17:30;-1.50;99.90
22633;DHT22;11483;55.828;37.488;2022-11-20T00:19:56;-1.50;99.90
22633;DHT22;11483;55.828;37.488;2022-11-20T00:22:22;-1.40;99.90
22633;DHT22;11483;55.828;37.488;2022-11-20T00:24:48;-1.40;99.90
22633;DHT22;11483;55.828;37.488;2022-11-20T00:27:13;-1.40;99.90
22633;DHT22;11483;55.828;37.488;2022-11-20T00:29:39;-1.50;99.90
22633;DHT22;11483;55.828;37.488;2022-11-20T00:32:05;-1.50;99.90
22633;DHT22;11483;55.828;37.488;2022-11-20T00:34:31;-1.50;99.90
22633;DHT22;11483;55.828;37.488;2022-11-20T00:36:58;-1.50;99.90
22633;DHT22;11483;55.828;37.488;2022-11-20T00:39:24;-1.40;99.90
22633;DHT22;11483;55.828;37.488;2022-11-20T00:41:50;-1.40;99.90
22633;DHT22;11483;55.828;37.488;2022-11-20T00:44:16;-1.40;99.90
22633;DHT22;11483;55.828;37.488;2022-11-20T00:46:42;-1.40;99.90
22633;DHT22;11483;55.828;37.488;2022-11-20T00:49:07;-1.40;99.90
22633;DHT22;11483;55.828;37.488;2022-11-20T00:51:33;-1.50;99.90
22633;DHT22;11483;55.828;37.488;2022-11-20T00:53:59;-1.40;99.90
22633;DHT22;11483;55.828;37.488;2022-11-20T00:56:27;-1.40;99.90
22633;DHT22;11483;55.828;37.488;2022-11-20T00:58:54;-1.40;99.90
22633;DHT22;11483;55.828;37.488;2022-11-20T01:01:22;-1.30;99.90
22633;DHT22;11483;55.828;37.488;2022-11-20T01:03:54;-1.30;99.90
22633;DHT22;11483;55.828;37.488;2022-11-20T01:06:26;-1.40;99.90
22633;DHT22;11483;55.828;37.488;2022-11-20T01:08:54;-1.40;99.90
22633;DHT22;11483;55.828;37.488;2022-11-20T01:11:26;-1.40;99.90
22633;DHT22;11483;55.828;37.488;2022-11-20T01:13:53;-1.40;99.90
22633;DHT22;11483;55.828;37.488;2022-11-20T01:18:51;-1.40;99.90
22633;DHT22;11483;55.828;37.488;2022-11-20T01:21:29;-1.50;99.90
22633;DHT22;11483;55.828;37.488;2022-11-20T01:23:55;-1.50;99.90
22633;DHT22;11483;55.828;37.488;2022-11-20T01:26:23;-1.40;99.90
22633;DHT22;11483;55.828;37.488;2022-11-20T01:28:49;-1.40;99.90
22633;DHT22;11483;55.828;37.488;2022-11-20T01:31:18;-1.50;99.90
22633;DHT22;11483;55.828;37.488;2022-11-20T01:33:46;-1.40;99.90
22633;DHT22;11483;55.828;37.488;2022-11-20T01:36:14;-1.50;99.90
22633;DHT22;11483;55.828;37.488;2022-11-20T01:38:40;-1.40;99.90
22633;DHT22;11483;55.828;37.488;2022-11-20T01:41:07;-1.40;99.90
22633;DHT22;11483;55.828;37.488;2022-11-20T01:43:34;-1.40;99.90
22633;DHT22;11483;55.828;37.488;2022-11-20T01:46:12;-1.40;99.90
22633;DHT22;11483;55.828;37.488;2022-11-20T01:48:57;-1.40;99.90
22633;DHT22;11483;55.828;37.488;2022-11-20T01:51:53;-1.40;99.90
22633;DHT22;11483;55.828;37.488;2022-11-20T01:54:32;-1.40;99.90
22633;DHT22;11483;55.828;37.488;2022-11-20T01:57:00;-1.50;99.90
22633;DHT22;11483;55.828;37.488;2022-11-20T01:59:26;-1.50;99.90
22633;DHT22;11483;55.828;37.488;2022-11-20T02:01:53;-1.50;99.90
22633;DHT22;11483;55.828;37.488;2022-11-20T02:04:20;-1.50;99.90
22633;DHT22;11483;55.828;37.488;2022-11-20T02:06:59;-1.50;99.90
22633;DHT22;11483;55.828;37.488;2022-11-20T02:09:25;-1.50;99.90
22633;DHT22;11483;55.828;37.488;2022-11-20T02:11:51;-1.50;99.90
22633;DHT22;11483;55.828;37.488;2022-11-20T02:14:17;-1.50;99.90
22633;DHT22;11483;55.828;37.488;2022-11-20T02:16:47;-1.50;99.90
22633;DHT22;11483;55.828;37.488;2022-11-20T02:24:24;-1.50;99.90
22633;DHT22;11483;55.828;37.488;2022-11-20T02:26:58;-1.50;99.90
22633;DHT22;11483;55.828;37.488;2022-11-20T02:29:29;-1.50;99.90
22633;DHT22;11483;55.828;37.488;2022-11-20T02:31:58;-1.50;99.90
22633;DHT22;11483;55.828;37.488;2022-11-20T02:34:25;-1.50;99.90
22633;DHT22;11483;55.828;37.488;2022-11-20T02:36:52;-1.50;99.90
22633;DHT22;11483;55.828;37.488;2022-11-20T02:39:19;-1.50;99.90
22633;DHT22;11483;55.828;37.488;2022-11-20T02:41:46;-1.50;99.90
22633;DHT22;11483;55.828;37.488;2022-11-20T02:44:12;-1.50;99.90
22633;DHT22;11483;55.828;37.488;2022-11-20T02:46:37;-1.60;99.90
22633;DHT22;11483;55.828;37.488;2022-11-20T02:49:04;-1.60;99.90
22633;DHT22;11483;55.828;37.488;2022-11-20T02:51:31;-1.60;99.90
22633;DHT22;11483;55.828;37.488;2022-11-20T02:53:57;-1.60;99.90
22633;DHT22;11483;55.828;37.488;2022-11-20T02:56:23;-1.70;99.90
22633;DHT22;11483;55.828;37.488;2022-11-20T02:58:49;-1.70;99.90
22633;DHT22;11483;55.828;37.488;2022-11-20T03:01:15;-1.70;99.90
22633;DHT22;11483;55.828;37.488;2022-11-20T03:03:41;-1.70;99.90
22633;DHT22;11483;55.828;37.488;2022-11-20T03:06:07;-1.70;99.90
22633;DHT22;11483;55.828;37.488;2022-11-20T03:08:33;-1.70;99.90
22633;DHT22;11483;55.828;37.488;2022-11-20T03:11:06;-1.70;99.90
22633;DHT22;11483;55.828;37.488;2022-11-20T03:13:33;-1.70;99.90
22633;DHT22;11483;55.828;37.488;2022-11-20T03:16:25;-1.70;99.90
22633;DHT22;11483;55.828;37.488;2022-11-20T03:18:52;-1.80;99.90
22633;DHT22;11483;55.828;37.488;2022-11-20T03:21:18;-1.80;99.90
22633;DHT22;11483;55.828;37.488;2022-11-20T03:23:45;-1.80;99.90
22633;DHT22;11483;55.828;37.488;2022-11-20T03:26:19;-1.80;99.90
22633;DHT22;11483;55.828;37.488;2022-11-20T03:29:00;-1.80;99.90
22633;DHT22;11483;55.828;37.488;2022-11-20T03:31:29;-1.80;99.90
22633;DHT22;11483;55.828;37.488;2022-11-20T03:33:56;-1.80;99.90
22633;DHT22;11483;55.828;37.488;2022-11-20T03:36:22;-1.80;99.90
22633;DHT22;11483;55.828;37.488;2022-11-20T03:38:48;-1.80;99.90
22633;DHT22;11483;55.828;37.488;2022-11-20T03:41:20;-1.80;99.90
22633;DHT22;11483;55.828;37.488;2022-11-20T03:43:50;-1.80;99.90
22633;DHT22;11483;55.828;37.488;2022-11-20T03:46:16;-1.70;99.90
22633;DHT22;11483;55.828;37.488;2022-11-20T03:48:42;-1.80;99.90
22633;DHT22;11483;55.828;37.488;2022-11-20T03:53:37;-1.80;99.90
22633;DHT22;11483;55.828;37.488;2022-11-20T03:56:04;-1.70;99.90
22633;DHT22;11483;55.828;37.488;2022-11-20T03:58:30;-1.70;99.90
22633;DHT22;11483;55.828;37.488;2022-11-20T04:00:56;-1.70;99.90
22633;DHT22;11483;55.828;37.488;2022-11-20T04:03:21;-1.70;99.90
22633;DHT22;11483;55.828;37.488;2022-11-20T04:05:47;-1.80;99.90
22633;DHT22;11483;55.828;37.488;2022-11-20T04:08:13;-1.80;99.90
22633;DHT22;11483;55.828;37.488;2022-11-20T04:10:39;-1.70;99.90
22633;DHT22;11483;55.828;37.488;2022-11-20T04:13:05;-1.80;99.90
22633;DHT22;11483;55.828;37.488;2022-11-20T04:15:30;-1.70;99.90
22633;DHT22;11483;55.828;37.488;2022-11-20T04:17:57;-1.80;99.90
22633;DHT22;11483;55.828;37.488;2022-11-20T04:20:23;-1.70;99.90
22633;DHT22;11483;55.828;37.488;2022-11-20T04:22:48;-1.80;99.90
22633;DHT22;11483;55.828;37.488;2022-11-20T04:25:14;-1.80;99.90
22633;DHT22;11483;55.828;37.488;2022-11-20T04:27:40;-1.80;99.90
22633;DHT22;11483;55.828;37.488;2022-11-20T04:30:06;-1.80;99.90
22633;DHT22;11483;55.828;37.488;2022-11-20T04:32:32;-1.70;99.90
22633;DHT22;11483;55.828;37.488;2022-11-20T04:34:58;-1.70;99.90
22633;DHT22;11483;55.828;37.488;2022-11-20T04:37:24;-1.70;99.90
22633;DHT22;11483;55.828;37.488;2022-11-20T04:39:50;-1.70;99.90
22633;DHT22;11483;55.828;37.488;2022-11-20T04:42:15;-1.70;99.90
22633;DHT22;11483;55.828;37.488;2022-11-20T04:44:53;-1.70;99.90
22633;DHT22;11483;55.828;37.488;2022-11-20T04:47:19;-1.70;99.90
22633;DHT22;11483;55.828;37.488;2022-11-20T04:49:45;-1.70;99.90
22633;DHT22;11483;55.828;37.488;2022-11-20T04:52:11;-1.60;99.90
22633;DHT22;11483;55.828;37.488;2022-11-20T04:54:37;-1.60;99.90
22633;DHT22;11483;55.828;37.488;2022-11-20T04:57:03;-1.60;99.90
22633;DHT22;11483;55.828;37.488;2022-11-20T04:59:29;-1.60;99.90
22633;DHT22;11483;55.828;37.488;2022-11-20T05:01:55;-1.60;99.90
22633;DHT22;11483;55.828;37.488;2022-11-20T05:04:20;-1.60;99.90
22633;DHT22;11483;55.828;37.488;2022-11-20T05:06:46;-1.60;99.90
22633;DHT22;11483;55.828;37.488;2022-11-20T05:09:12;-1.60;99.90
22633;DHT22;11483;55.828;37.488;2022-11-20T05:11:38;-1.60;99.90
22633;DHT22;11483;55.828;37.488;2022-11-20T05:14:05;-1.60;99.90
22633;DHT22;11483;55.828;37.488;2022-11-20T05:16:31;-1.70;99.90
22633;DHT22;11483;55.828;37.488;2022-11-20T05:18:59;-1.60;99.90
22633;DHT22;11483;55.828;37.488;2022-11-20T05:21:25;-1.60;99.90
22633;DHT22;11483;55.828;37.488;2022-11-20T05:23:51;-1.60;99.90
22633;DHT22;11483;55.828;37.488;2022-11-20T05:26:20;-1.60;99.90
22633;DHT22;11483;55.828;37.488;2022-11-20T05:28:47;-1.60;99.90
22633;DHT22;11483;55.828;37.488;2022-11-20T05:31:19;-1.60;99.90
22633;DHT22;11483;55.828;37.488;2022-11-20T05:33:45;-1.60;99.90
22633;DHT22;11483;55.828;37.488;2022-11-20T05:36:13;-1.50;99.90
22633;DHT22;11483;55.828;37.488;2022-11-20T05:38:40;-1.50;99.90
22633;DHT22;11483;55.828;37.488;2022-11-20T05:41:14;-1.50;99.90
22633;DHT22;11483;55.828;37.488;2022-11-20T05:43:41;-1.50;99.90
22633;DHT22;11483;55.828;37.488;2022-11-20T05:46:10;-1.50;99.90
22633;DHT22;11483;55.828;37.488;2022-11-20T05:48:38;-1.50;99.90
22633;DHT22;11483;55.828;37.488;2022-11-20T05:51:07;-1.50;99.90
22633;DHT22;11483;55.828;37.488;2022-11-20T05:53:34;-1.50;99.90
22633;DHT22;11483;55.828;37.488;2022-11-20T05:56:12;-1.40;99.90
22633;DHT22;11483;55.828;37.488;2022-11-20T05:58:39;-1.40;99.90
22633;DHT22;11483;55.828;37.488;2022-11-20T06:01:14;-1.40;99.90
22633;DHT22;11483;55.828;37.488;2022-11-20T06:03:41;-1.40;99.90
22633;DHT22;11483;55.828;37.488;2022-11-20T06:06:14;-1.40;99.90
22633;DHT22;11483;55.828;37.488;2022-11-20T06:08:41;-1.30;99.90
22633;DHT22;11483;55.828;37.488;2022-11-20T06:11:10;-1.30;99.90
22633;DHT22;11483;55.828;37.488;2022-11-20T06:13:37;-1.30;99.90
22633;DHT22;11483;55.828;37.488;2022-11-20T06:16:03;-1.30;99.90
22633;DHT22;11483;55.828;37.488;2022-11-20T06:18:29;-1.20;99.90
22633;DHT22;11483;55.828;37.488;2022-11-20T06:21:04;-1.10;99.90
22633;DHT22;11483;55.828;37.488;2022-11-20T06:23:32;-1.10;99.90
22633;DHT22;11483;55.828;37.488;2022-11-20T06:26:02;-1.00;99.90
22633;DHT22;11483;55.828;37.488;2022-11-20T06:28:28;-0.90;99.90
22633;DHT22;11483;55.828;37.488;2022-11-20T06:30:54;-0.90;99.90
22633;DHT22;11483;55.828;37.488;2022-11-20T06:33:19;-0.90;99.90
22633;DHT22;11483;55.828;37.488;2022-11-20T06:35:45;-0.80;99.90
22633;DHT22;11483;55.828;37.488;2022-11-20T06:38:11;-0.80;99.90
22633;DHT22;11483;55.828;37.488;2022-11-20T06:40:40;-0.80;99.90
22633;DHT22;11483;55.828;37.488;2022-11-20T06:43:06;-0.80;99.90
22633;DHT22;11483;55.828;37.488;2022-11-20T06:45:32;-0.70;99.90
22633;DHT22;11483;55.828;37.488;2022-11-20T06:47:58;-0.60;99.90
22633;DHT22;11483;55.828;37.488;2022-11-20T06:50:24;-0.60;99.90
22633;DHT22;11483;55.828;37.488;2022-11-20T06:52:50;-0.60;99.90
22633;DHT22;11483;55.828;37.488;2022-11-20T06:55:16;-0.50;99.90
22633;DHT22;11483;55.828;37.488;2022-11-20T06:57:41;-0.50;99.90
22633;DHT22;11483;55.828;37.488;2022-11-20T07:00:08;-0.40;99.90
22633;DHT22;11483;55.828;37.488;2022-11-20T07:02:34;-0.50;99.90
22633;DHT22;11483;55.828;37.488;2022-11-20T07:04:59;-0.50;99.90
22633;DHT22;11483;55.828;37.488;2022-11-20T07:07:25;-0.50;99.90
22633;DHT22;11483;55.828;37.488;2022-11-20T07:09:51;-0.50;99.90
22633;DHT22;11483;55.828;37.488;2022-11-20T07:12:18;-0.50;99.90
22633;DHT22;11483;55.828;37.488;2022-11-20T07:14:44;-0.50;99.90
22633;DHT22;11483;55.828;37.488;2022-11-20T07:17:11;-0.40;99.90
22633;DHT22;11483;55.828;37.488;2022-11-20T07:19:37;-0.20;99.90
22633;DHT22;11483;55.828;37.488;2022-11-20T07:22:03;-0.20;99.90
22633;DHT22;11483;55.828;37.488;2022-11-20T07:24:29;-0.20;99.90
22633;DHT22;11483;55.828;37.488;2022-11-20T07:26:55;-0.20;99.90
22633;DHT22;11483;55.828;37.488;2022-11-20T07:29:23;-0.10;99.90
22633;DHT22;11483;55.828;37.488;2022-11-20T07:31:49;-0.10;99.90
22633;DHT22;11483;55.828;37.488;2022-11-20T07:34:15;-0.10;99.90
22633;DHT22;11483;55.828;37.488;2022-11-20T07:36:41;0.00;99.90
22633;DHT22;11483;55.828;37.488;2022-11-20T07:39:07;-0.10;99.90
22633;DHT22;11483;55.828;37.488;2022-11-20T07:41:33;-0.10;99.90
22633;DHT22;11483;55.828;37.488;2022-11-20T07:43:58;0.00;99.90
22633;DHT22;11483;55.828;37.488;2022-11-20T07:46:24;0.00;99.90
22633;DHT22;11483;55.828;37.488;2022-11-20T07:48:50;0.00;99.90
22633;DHT22;11483;55.828;37.488;2022-11-20T07:51:16;0.10;99.90
22633;DHT22;11483;55.828;37.488;2022-11-20T07:53:42;0.20;99.90
22633;DHT22;11483;55.828;37.488;2022-11-20T07:56:07;0.30;99.90
22633;DHT22;11483;55.828;37.488;2022-11-20T07:58:33;0.40;99.90
22633;DHT22;11483;55.828;37.488;2022-11-20T08:01:06;0.40;99.90
22633;DHT22;11483;55.828;37.488;2022-11-20T08:03:35;0.40;99.90
22633;DHT22;11483;55.828;37.488;2022-11-20T08:06:03;0.40;99.90
22633;DHT22;11483;55.828;37.488;2022-11-20T08:08:29;0.40;99.90
22633;DHT22;11483;55.828;37.488;2022-11-20T08:10:58;0.30;99.90
22633;DHT22;11483;55.828;37.488;2022-11-20T08:13:43;0.40;99.90
22633;DHT22;11483;55.828;37.488;2022-11-20T08:16:28;0.40;99.90
22633;DHT22;11483;55.828;37.488;2022-11-20T08:18:54;0.50;99.90
22633;DHT22;11483;55.828;37.488;2022-11-20T08:21:20;0.60;99.90
22633;DHT22;11483;55.828;37.488;2022-11-20T08:23:46;0.60;99.90
22633;DHT22;11483;55.828;37.488;2022-11-20T08:26:12;0.70;99.90
22633;DHT22;11483;55.828;37.488;2022-11-20T08:28:38;0.70;99.90
22633;DHT22;11483;55.828;37.488;2022-11-20T08:31:04;0.70;99.90
22633;DHT22;11483;55.828;37.488;2022-11-20T08:33:30;0.70;99.90
22633;DHT22;11483;55.828;37.488;2022-11-20T08:35:59;0.70;99.90
22633;DHT22;11483;55.828;37.488;2022-11-20T08:38:26;0.70;99.90
22633;DHT22;11483;55.828;37.488;2022-11-20T08:40:52;0.70;99.90
22633;DHT22;11483;55.828;37.488;2022-11-20T08:43:44;0.70;99.90
22633;DHT22;11483;55.828;37.488;2022-11-20T08:46:10;0.70;99.90
22633;DHT22;11483;55.828;37.488;2022-11-20T08:48:36;0.80;99.90
22633;DHT22;11483;55.828;37.488;2022-11-20T08:51:02;0.90;99.90
22633;DHT22;11483;55.828;37.488;2022-11-20T08:53:28;1.00;99.90
22633;DHT22;11483;55.828;37.488;2022-11-20T08:55:55;1.00;99.90
22633;DHT22;11483;55.828;37.488;2022-11-20T08:58:22;1.00;99.90
22633;DHT22;11483;55.828;37.488;2022-11-20T09:00:48;1.10;99.90
22633;DHT22;11483;55.828;37.488;2022-11-20T09:03:14;1.10;99.90
22633;DHT22;11483;55.828;37.488;2022-11-20T09:05:40;1.20;99.90
22633;DHT22;11483;55.828;37.488;2022-11-20T09:08:06;1.30;99.90
22633;DHT22;11483;55.828;37.488;2022-11-20T09:10:31;1.40;99.90
22633;DHT22;11483;55.828;37.488;2022-11-20T09:12:57;1.40;99.90
22633;DHT22;11483;55.828;37.488;2022-11-20T09:15:24;1.40;99.90
22633;DHT22;11483;55.828;37.488;2022-11-20T09:18:03;1.30;99.90
22633;DHT22;11483;55.828;37.488;2022-11-20T09:20:30;1.30;99.90
22633;DHT22;11483;55.828;37.488;2022-11-20T09:22:57;1.40;99.90
22633;DHT22;11483;55.828;37.488;2022-11-20T09:25:23;1.40;99.90
22633;DHT22;11483;55.828;37.488;2022-11-20T09:27:55;1.30;99.90
22633;DHT22;11483;55.828;37.488;2022-11-20T09:30:21;1.10;99.90
22633;DHT22;11483;55.828;37.488;2022-11-20T09:32:47;0.90;99.90
22633;DHT22;11483;55.828;37.488;2022-11-20T09:35:13;0.80;99.90
22633;DHT22;11483;55.828;37.488;2022-11-20T09:37:56;0.70;99.90
22633;DHT22;11483;55.828;37.488;2022-11-20T09:40:29;0.70;99.90
22633;DHT22;11483;55.828;37.488;2022-11-20T09:43:10;0.60;99.90
22633;DHT22;11483;55.828;37.488;2022-11-20T09:48:15;0.40;99.90
22633;DHT22;11483;55.828;37.488;2022-11-20T09:55:56;0.30;99.90
22633;DHT22;11483;55.828;37.488;2022-11-20T09:58:34;0.30;99.90
22633;DHT22;11483;55.828;37.488;2022-11-20T10:01:18;0.30;99.90
22633;DHT22;11483;55.828;37.488;2022-11-20T10:06:32;0.30;99.90
22633;DHT22;11483;55.828;37.488;2022-11-20T10:09:07;0.30;99.90
22633;DHT22;11483;55.828;37.488;2022-11-20T10:11:45;0.40;99.90
22633;DHT22;11483;55.828;37.488;2022-11-20T10:17:03;0.40;99.90
22633;DHT22;11483;55.828;37.488;2022-11-20T10:19:44;0.30;99.90
22633;DHT22;11483;55.828;37.488;2022-11-20T10:22:20;0.20;99.90
22633;DHT22;11483;55.828;37.488;2022-11-20T10:25:13;0.20;99.90
22633;DHT22;11483;55.828;37.488;2022-11-20T10:30:57;0.20;99.90
22633;DHT22;11483;55.828;37.488;2022-11-20T10:33:27;0.20;99.90
22633;DHT22;11483;55.828;37.488;2022-11-20T10:39:18;0.30;99.90
22633;DHT22;11483;55.828;37.488;2022-11-20T10:41:51;0.30;99.90
22633;DHT22;11483;55.828;37.488;2022-11-20T10:44:25;0.40;99.90
22633;DHT22;11483;55.828;37.488;2022-11-20T10:47:18;0.40;99.90
22633;DHT22;11483;55.828;37.488;2022-11-20T10:49:53;0.40;99.90
22633;DHT22;11483;55.828;37.488;2022-11-20T10:52:32;0.40;99.90
22633;DHT22;11483;55.828;37.488;2022-11-20T11:00:36;0.30;99.90
22633;DHT22;11483;55.828;37.488;2022-11-20T11:03:07;0.20;99.90
22633;DHT22;11483;55.828;37.488;2022-11-20T11:05:50;0.10;99.90
22633;DHT22;11483;55.828;37.488;2022-11-20T11:08:18;0.00;99.90
22633;DHT22;11483;55.828;37.488;2022-11-20T11:13:28;0.00;99.90
22633;DHT22;11483;55.828;37.488;2022-11-20T11:15:54;0.00;99.90
22633;DHT22;11483;55.828;37.488;2022-11-20T11:18:31;0.00;99.90
22633;DHT22;11483;55.828;37.488;2022-11-20T11:21:03;0.10;99.90
22633;DHT22;11483;55.828;37.488;2022-11-20T11:26:05;0.00;99.90
22633;DHT22;11483;55.828;37.488;2022-11-20T11:28:32;0.00;99.90
22633;DHT22;11483;55.828;37.488;2022-11-20T11:30:58;0.00;99.90
22633;DHT22;11483;55.828;37.488;2022-11-20T11:33:29;-0.10;99.90
22633;DHT22;11483;55.828;37.488;2022-11-20T11:36:01;0.00;99.90
22633;DHT22;11483;55.828;37.488;2022-11-20T11:38:42;0.00;99.90
22633;DHT22;11483;55.828;37.488;2022-11-20T11:41:22;0.00;99.90
22633;DHT22;11483;55.828;37.488;2022-11-20T11:43:54;-0.10;99.90
22633;DHT22;11483;55.828;37.488;2022-11-20T11:46:49;-0.20;99.90
22633;DHT22;11483;55.828;37.488;2022-11-20T11:49:18;-0.20;99.90
22633;DHT22;11483;55.828;37.488;2022-11-20T11:55:04;-0.30;99.90
22633;DHT22;11483;55.828;37.488;2022-11-20T12:00:20;-0.40;99.90
22633;DHT22;11483;55.828;37.488;2022-11-20T12:08:17;-0.40;99.90
22633;DHT22;11483;55.828;37.488;2022-11-20T12:10:58;-0.50;99.90
22633;DHT22;11483;55.828;37.488;2022-11-20T12:15:50;-0.50;99.90
22633;DHT22;11483;55.828;37.488;2022-11-20T12:18:18;-0.50;99.90
22633;DHT22;11483;55.828;37.488;2022-11-20T12:21:21;-0.50;99.90
22633;DHT22;11483;55.828;37.488;2022-11-20T12:24:16;-0.50;99.90
22633;DHT22;11483;55.828;37.488;2022-11-20T12:27:18;-0.40;99.90
22633;DHT22;11483;55.828;37.488;2022-11-20T12:32:42;-0.40;99.90
22633;DHT22;11483;55.828;37.488;2022-11-20T12:38:44;-0.40;99.90
22633;DHT22;11483;55.828;37.488;2022-11-20T12:41:43;-0.50;99.90
22633;DHT22;11483;55.828;37.488;2022-11-20T12:50:28;-0.50;99.90
22633;DHT22;11483;55.828;37.488;2022-11-20T13:06:58;-0.40;99.90
22633;DHT22;11483;55.828;37.488;2022-11-20T13:09:26;-0.40;99.90
22633;DHT22;11483;55.828;37.488;2022-11-20T13:17:35;-0.50;99.90
22633;DHT22;11483;55.828;37.488;2022-11-20T13:20:04;-0.50;99.90
22633;DHT22;11483;55.828;37.488;2022-11-20T13:22:49;-0.50;99.90
22633;DHT22;11483;55.828;37.488;2022-11-20T13:27:54;-0.50;99.90
22633;DHT22;11483;55.828;37.488;2022-11-20T13:30:22;-0.50;99.90
22633;DHT22;11483;55.828;37.488;2022-11-20T13:35:32;-0.50;99.90
22633;DHT22;11483;55.828;37.488;2022-11-20T13:38:06;-0.50;99.90
22633;DHT22;11483;55.828;37.488;2022-11-20T13:40:36;-0.40;99.90
22633;DHT22;11483;55.828;37.488;2022-11-20T13:43:38;-0.50;99.90
22633;DHT22;11483;55.828;37.488;2022-11-20T13:46:08;-0.50;99.90
22633;DHT22;11483;55.828;37.488;2022-11-20T13:48:42;-0.60;99.90
22633;DHT22;11483;55.828;37.488;2022-11-20T13:51:43;-0.60;99.90
22633;DHT22;11483;55.828;37.488;2022-11-20T13:57:44;-0.50;99.90
22633;DHT22;11483;55.828;37.488;2022-11-20T14:00:20;-0.50;99.90
22633;DHT22;11483;55.828;37.488;2022-11-20T14:03:15;-0.50;99.90
22633;DHT22;11483;55.828;37.488;2022-11-20T14:05:56;-0.40;99.90
22633;DHT22;11483;55.828;37.488;2022-11-20T14:08:42;-0.40;99.90
22633;DHT22;11483;55.828;37.488;2022-11-20T14:11:16;-0.40;99.90
22633;DHT22;11483;55.828;37.488;2022-11-20T14:14:15;-0.40;99.90
22633;DHT22;11483;55.828;37.488;2022-11-20T14:16:42;-0.30;99.90
22633;DHT22;11483;55.828;37.488;2022-11-20T14:22:06;-0.40;99.90
22633;DHT22;11483;55.828;37.488;2022-11-20T14:24:32;-0.50;99.90
22633;DHT22;11483;55.828;37.488;2022-11-20T14:26:58;-0.50;99.90
22633;DHT22;11483;55.828;37.488;2022-11-20T14:29:29;-0.60;99.90
22633;DHT22;11483;55.828;37.488;2022-11-20T14:31:58;-0.50;99.90
22633;DHT22;11483;55.828;37.488;2022-11-20T14:34:38;-0.50;99.90
22633;DHT22;11483;55.828;37.488;2022-11-20T14:37:11;-0.40;99.90
22633;DHT22;11483;55.828;37.488;2022-11-20T14:39:47;-0.30;99.90
22633;DHT22;11483;55.828;37.488;2022-11-20T14:42:25;-0.30;99.90
22633;DHT22;11483;55.828;37.488;2022-11-20T14:44:55;-0.30;99.90
22633;DHT22;11483;55.828;37.488;2022-11-20T14:47:24;-0.20;99.90
22633;DHT22;11483;55.828;37.488;2022-11-20T14:49:52;-0.20;99.90
22633;DHT22;11483;55.828;37.488;2022-11-20T14:52:23;-0.30;99.90
22633;DHT22;11483;55.828;37.488;2022-11-20T14:54:52;-0.30;99.90
22633;DHT22;11483;55.828;37.488;2022-11-20T14:57:22;-0.30;99.90
22633;DHT22;11483;55.828;37.488;2022-11-20T14:59:48;-0.30;99.90
22633;DHT22;11483;55.828;37.488;2022-11-20T15:02:13;-0.20;99.90
22633;DHT22;11483;55.828;37.488;2022-11-20T15:04:50;-0.20;99.90
22633;DHT22;11483;55.828;37.488;2022-11-20T15:07:31;-0.20;99.90
22633;DHT22;11483;55.828;37.488;2022-11-20T15:10:08;-0.20;99.90
22633;DHT22;11483;55.828;37.488;2022-11-20T15:12:40;-0.20;99.90
22633;DHT22;11483;55.828;37.488;2022-11-20T15:15:12;-0.30;99.90
22633;DHT22;11483;55.828;37.488;2022-11-20T15:17:41;-0.20;99.90
22633;DHT22;11483;55.828;37.488;2022-11-20T15:20:14;-0.20;99.90
22633;DHT22;11483;55.828;37.488;2022-11-20T15:22:40;-0.20;99.90
22633;DHT22;11483;55.828;37.488;2022-11-20T15:25:16;-0.20;99.90
22633;DHT22;11483;55.828;37.488;2022-11-20T15:27:43;-0.20;99.90
22633;DHT22;11483;55.828;37.488;2022-11-20T15:30:18;-0.30;99.90
22633;DHT22;11483;55.828;37.488;2022-11-20T15:32:45;-0.30;99.90
22633;DHT22;11483;55.828;37.488;2022-11-20T15:35:12;-0.40;99.90
22633;DHT22;11483;55.828;37.488;2022-11-20T15:37:38;-0.40;99.90
22633;DHT22;11483;55.828;37.488;2022-11-20T15:40:05;-0.50;99.90
22633;DHT22;11483;55.828;37.488;2022-11-20T15:42:31;-0.40;99.90
22633;DHT22;11483;55.828;37.488;2022-11-20T15:44:57;-0.30;99.90
22633;DHT22;11483;55.828;37.488;2022-11-20T15:47:27;-0.20;99.90
22633;DHT22;11483;55.828;37.488;2022-11-20T15:49:54;-0.10;99.90
22633;DHT22;11483;55.828;37.488;2022-11-20T15:52:20;-0.10;99.90
22633;DHT22;11483;55.828;37.488;2022-11-20T15:54:46;-0.10;99.90
22633;DHT22;11483;55.828;37.488;2022-11-20T15:57:11;-0.20;99.90
22633;DHT22;11483;55.828;37.488;2022-11-20T15:59:38;-0.30;99.90
22633;DHT22;11483;55.828;37.488;2022-11-20T16:02:14;-0.30;99.90
22633;DHT22;11483;55.828;37.488;2022-11-20T16:04:40;-0.40;99.90
22633;DHT22;11483;55.828;37.488;2022-11-20T16:07:07;-0.40;99.90
22633;DHT22;11483;55.828;37.488;2022-11-20T16:09:33;-0.40;99.90
22633;DHT22;11483;55.828;37.488;2022-11-20T16:11:59;-0.10;99.90
22633;DHT22;11483;55.828;37.488;2022-11-20T16:14:28;-0.50;99.90
22633;DHT22;11483;55.828;37.488;2022-11-20T16:17:13;-0.40;99.90
22633;DHT22;11483;55.828;37.488;2022-11-20T16:19:39;-0.30;99.90
22633;DHT22;11483;55.828;37.488;2022-11-20T16:22:16;-0.20;99.90
22633;DHT22;11483;55.828;37.488;2022-11-20T16:24:45;-0.10;99.90
22633;DHT22;11483;55.828;37.488;2022-11-20T16:27:11;-0.10;99.90
22633;DHT22;11483;55.828;37.488;2022-11-20T16:29:37;-0.10;99.90
22633;DHT22;11483;55.828;37.488;2022-11-20T16:32:03;-0.20;99.90
22633;DHT22;11483;55.828;37.488;2022-11-20T16:34:29;-0.30;99.90
22633;DHT22;11483;55.828;37.488;2022-11-20T16:36:55;-0.30;99.90
22633;DHT22;11483;55.828;37.488;2022-11-20T16:39:21;-0.30;99.90
22633;DHT22;11483;55.828;37.488;2022-11-20T16:41:47;-0.40;99.90
22633;DHT22;11483;55.828;37.488;2022-11-20T16:44:15;-0.50;99.90
22633;DHT22;11483;55.828;37.488;2022-11-20T16:46:41;-0.40;99.90
22633;DHT22;11483;55.828;37.488;2022-11-20T16:49:12;-0.40;99.90
22633;DHT22;11483;55.828;37.488;2022-11-20T16:51:41;-0.40;99.90
22633;DHT22;11483;55.828;37.488;2022-11-20T16:54:10;-0.40;99.90
22633;DHT22;11483;55.828;37.488;2022-11-20T16:56:37;-0.40;99.90
22633;DHT22;11483;55.828;37.488;2022-11-20T16:59:04;-0.40;99.90
22633;DHT22;11483;55.828;37.488;2022-11-20T17:01:30;-0.40;99.90
22633;DHT22;11483;55.828;37.488;2022-11-20T17:03:57;-0.40;99.90
22633;DHT22;11483;55.828;37.488;2022-11-20T17:06:28;-0.40;99.90
22633;DHT22;11483;55.828;37.488;2022-11-20T17:08:55;-0.40;99.90
22633;DHT22;11483;55.828;37.488;2022-11-20T17:11:21;-0.40;99.90
22633;DHT22;11483;55.828;37.488;2022-11-20T17:13:48;-0.40;99.90